Time,TemperatureF,DewpointF,PressureIn,WindDirection,WindDirectionDegrees,WindSpeedMPH,WindSpeedGustMPH,Humidity,HourlyPrecipIn,Conditions,Clouds,dailyrainin,SoftwareType,DateUTC
2013-06-16 06:38:00,63.0,55.0,29.58,NE,45,0.0,3.0,75,0.00,,,0.00,Rainwise IP-100,2013-06-16 10:38:00,
2013-06-16 06:43:00,64.0,55.0,29.59,NE,45,1.0,3.0,74,0.00,,,0.00,Rainwise IP-100,2013-06-16 10:43:00,
2013-06-16 10:34:00,72.0,50.0,29.58,South,180,9.0,9.0,45,0.00,,,0.00,Rainwise IP-100,2013-06-16 14:34:00,
2013-06-16 10:39:00,72.0,50.5,29.58,SSE,157,7.0,10.0,47,0.00,,,0.00,Rainwise IP-100,2013-06-16 14:39:00,
2013-06-16 10:44:00,72.0,50.5,29.58,SSE,157,7.0,9.0,47,0.00,,,0.00,Rainwise IP-100,2013-06-16 14:44:00,
2013-06-16 10:49:00,72.0,50.0,29.57,South,180,5.0,10.0,45,0.00,,,0.00,Rainwise IP-100,2013-06-16 14:49:00,
2013-06-16 10:54:00,73.0,54.0,29.57,NE,45,2.0,10.0,51,0.00,,,0.00,Rainwise IP-100,2013-06-16 14:54:00,
2013-06-16 10:59:00,74.0,52.0,29.57,South,180,4.0,5.0,46,0.00,,,0.00,Rainwise IP-100,2013-06-16 14:59:00,
2013-06-16 11:04:00,73.0,48.0,29.57,SSE,157,6.0,9.0,42,0.00,,,0.00,Rainwise IP-100,2013-06-16 15:04:00,
2013-06-16 11:09:00,73.0,48.0,29.57,SSE,157,6.0,8.0,42,0.00,,,0.00,Rainwise IP-100,2013-06-16 15:09:00,
2013-06-16 11:14:00,73.0,48.0,29.57,SSW,202,6.0,8.0,42,0.00,,,0.00,Rainwise IP-100,2013-06-16 15:14:00,
2013-06-16 11:27:00,74.0,48.0,29.57,South,180,6.0,8.0,40,0.00,,,0.00,Rainwise IP-100,2013-06-16 15:27:00,
2013-06-16 11:32:00,74.0,50.5,29.56,SE,135,2.0,9.0,43,0.00,,,0.00,Rainwise IP-100,2013-06-16 15:32:00,
2013-06-16 11:37:00,74.0,50.5,29.56,South,180,6.0,8.0,43,0.00,,,0.00,Rainwise IP-100,2013-06-16 15:37:00,
2013-06-16 11:45:00,74.0,50.0,29.56,SSE,157,5.0,6.0,42,0.00,,,0.00,Rainwise IP-100,2013-06-16 15:45:00,
2013-06-16 11:50:00,74.0,50.5,29.55,South,180,8.0,10.0,43,0.00,,,0.00,Rainwise IP-100,2013-06-16 15:50:00,
2013-06-16 11:55:00,74.0,50.0,29.55,South,180,6.0,9.0,42,0.00,,,0.00,Rainwise IP-100,2013-06-16 15:55:00,
2013-06-16 12:00:00,74.0,47.5,29.55,South,180,10.0,15.0,39,0.00,,,0.00,Rainwise IP-100,2013-06-16 16:00:00,
2013-06-16 12:05:00,74.0,51.0,29.55,SE,135,3.0,13.0,45,0.00,,,0.00,Rainwise IP-100,2013-06-16 16:05:00,
2013-06-16 12:10:00,73.0,50.5,29.55,South,180,12.0,14.0,45,0.00,,,0.00,Rainwise IP-100,2013-06-16 16:10:00,
2013-06-16 12:15:00,73.0,50.5,29.55,South,180,12.0,13.0,45,0.00,,,0.00,Rainwise IP-100,2013-06-16 16:15:00,
2013-06-16 12:20:00,73.0,52.0,29.54,SSE,157,5.0,13.0,48,0.00,,,0.00,Rainwise IP-100,2013-06-16 16:20:00,
2013-06-16 12:25:00,73.0,52.0,29.54,ESE,112,8.0,9.0,48,0.00,,,0.00,Rainwise IP-100,2013-06-16 16:25:00,
2013-06-16 12:28:00,73.0,52.0,29.54,ESE,112,8.0,9.0,48,0.00,,,0.00,Rainwise IP-100,2013-06-16 16:28:00,
2013-06-16 13:02:00,75.0,47.5,29.53,SW,225,11.0,11.0,38,0.00,,,0.00,Rainwise IP-100,2013-06-16 17:02:00,
2013-06-16 13:07:00,75.0,47.5,29.53,South,180,13.0,14.0,38,0.00,,,0.00,Rainwise IP-100,2013-06-16 17:07:00,
2013-06-16 13:12:00,75.0,47.5,29.53,SW,225,10.0,14.0,38,0.00,,,0.00,Rainwise IP-100,2013-06-16 17:12:00,
2013-06-16 13:18:00,76.0,52.0,29.53,SW,225,8.0,14.0,43,0.00,,,0.00,Rainwise IP-100,2013-06-16 17:18:00,
2013-06-16 13:23:00,76.0,52.0,29.53,SSW,202,13.0,18.0,43,0.00,,,0.00,Rainwise IP-100,2013-06-16 17:23:00,
2013-06-16 13:48:00,77.0,50.0,29.53,SSW,202,12.0,18.0,38,0.00,,,0.00,Rainwise IP-100,2013-06-16 17:48:00,
2013-06-16 14:02:00,76.0,50.0,29.53,SW,225,2.0,0.0,40,0.00,,,0.00,Rainwise IP-100,2013-06-16 18:02:00,
2013-06-16 14:07:00,75.0,49.0,29.53,SW,225,13.0,13.0,40,0.00,,,0.00,Rainwise IP-100,2013-06-16 18:07:00,
2013-06-16 14:12:00,75.0,49.0,29.53,SW,225,13.0,13.0,40,0.00,,,0.00,Rainwise IP-100,2013-06-16 18:12:00,
2013-06-16 14:57:00,73.0,47.5,29.51,SW,225,6.0,13.0,40,0.00,,,0.00,Rainwise IP-100,2013-06-16 18:57:00,
2013-06-16 15:02:00,73.0,47.0,29.50,WSW,247,8.0,11.0,39,0.00,,,0.00,Rainwise IP-100,2013-06-16 19:02:00,
2013-06-16 15:21:00,71.0,51.0,29.51,South,180,5.0,9.0,50,0.00,,,0.00,Rainwise IP-100,2013-06-16 19:21:00,
2013-06-16 15:26:00,71.0,48.0,29.51,SW,225,10.0,12.0,45,0.00,,,0.00,Rainwise IP-100,2013-06-16 19:26:00,
2013-06-16 15:31:00,71.0,48.0,29.51,SW,225,10.0,12.0,45,0.00,,,0.00,Rainwise IP-100,2013-06-16 19:31:00,
2013-06-16 15:36:00,72.0,50.5,29.51,SW,225,13.0,15.0,47,0.00,,,0.00,Rainwise IP-100,2013-06-16 19:36:00,